createdAt,value
2019-02-20T00:00:49.416Z,6.12
2019-02-20T00:01:49.434Z,6.15
2019-02-20T00:02:49.448Z,6.14
2019-02-20T00:03:49.442Z,6.14
2019-02-20T00:04:49.458Z,6.12
2019-02-20T00:05:49.468Z,6.09
2019-02-20T00:06:49.474Z,6.01
2019-02-20T00:07:49.489Z,6.11
2019-02-20T00:08:49.500Z,6.04
2019-02-20T00:09:49.506Z,6.04
2019-02-20T00:10:49.522Z,6.11
2019-02-20T00:11:49.550Z,6.03
2019-02-20T00:12:49.555Z,6.11
2019-02-20T00:13:49.552Z,6.04
2019-02-20T00:14:49.562Z,6.08
2019-02-20T00:15:49.574Z,6.01
2019-02-20T00:16:49.580Z,6.06
2019-02-20T00:17:49.603Z,6.00
2019-02-20T00:18:49.608Z,6.12
2019-02-20T00:19:49.616Z,6.03
2019-02-20T00:20:49.632Z,6.04
2019-02-20T00:21:49.635Z,6.11
2019-02-20T00:22:49.657Z,6.11
2019-02-20T00:23:49.660Z,6.08
2019-02-20T00:24:49.676Z,6.11
2019-02-20T00:25:49.681Z,6.14
2019-02-20T00:26:49.789Z,6.14
2019-02-20T00:27:49.707Z,6.14
2019-02-20T00:28:49.791Z,6.17
2019-02-20T00:29:49.727Z,6.08
2019-02-20T00:30:49.738Z,6.09
2019-02-20T00:31:49.743Z,6.14
2019-02-20T00:32:49.759Z,6.15
2019-02-20T00:33:49.776Z,6.11
2019-02-20T00:34:49.793Z,6.15
2019-02-20T00:35:49.855Z,6.14
2019-02-20T00:36:49.796Z,6.14
2019-02-20T00:37:49.832Z,6.09
2019-02-20T00:38:49.823Z,6.09
2019-02-20T00:39:49.831Z,6.06
2019-02-20T00:40:49.842Z,6.06
2019-02-20T00:41:49.854Z,6.06
2019-02-20T00:42:49.872Z,6.04
2019-02-20T00:43:49.878Z,6.00
2019-02-20T00:44:49.893Z,6.04
2019-02-20T00:45:49.901Z,6.14
2019-02-20T00:46:49.907Z,6.06
2019-02-20T00:47:49.927Z,6.01
2019-02-20T00:48:49.929Z,6.08
2019-02-20T00:49:49.939Z,6.01
2019-02-20T00:50:49.956Z,6.09
2019-02-20T00:51:49.962Z,6.08
2019-02-20T00:52:50.493Z,5.90
2019-02-20T00:53:49.981Z,5.99
2019-02-20T00:54:49.999Z,5.99
2019-02-20T00:55:50.003Z,5.93
2019-02-20T00:56:50.020Z,5.94
2019-02-20T00:57:50.025Z,6.00
2019-02-20T00:58:50.035Z,5.99
2019-02-20T00:59:50.055Z,5.96
2019-02-20T01:00:50.066Z,5.99
2019-02-20T01:01:50.066Z,5.96
2019-02-20T01:02:50.081Z,5.96
2019-02-20T01:03:50.090Z,6.08
2019-02-20T01:04:50.100Z,6.04
2019-02-20T01:05:50.115Z,6.08
2019-02-20T01:06:50.122Z,6.01
2019-02-20T01:07:50.146Z,6.01
2019-02-20T01:08:50.146Z,6.06
2019-02-20T01:09:50.153Z,6.04
2019-02-20T01:10:50.171Z,6.01
2019-02-20T01:11:50.175Z,6.04
2019-02-20T01:12:50.197Z,6.04
2019-02-20T01:13:50.205Z,6.06
2019-02-20T01:14:50.232Z,6.01
2019-02-20T01:15:50.219Z,6.12
2019-02-20T01:16:50.231Z,6.14
2019-02-20T01:17:50.246Z,6.14
2019-02-20T01:18:50.259Z,6.14
2019-02-20T01:19:50.261Z,6.15
2019-02-20T01:20:50.270Z,6.15
2019-02-20T01:21:50.280Z,6.14
2019-02-20T01:22:59.459Z,6.22
2019-02-20T01:23:50.304Z,6.17
2019-02-20T01:24:50.319Z,6.27
2019-02-20T01:25:50.338Z,6.33
2019-02-20T01:26:50.346Z,6.30
2019-02-20T01:27:50.362Z,6.25
2019-02-20T01:28:50.365Z,6.28
2019-02-20T01:29:50.370Z,6.34
2019-02-20T01:30:50.469Z,6.30
2019-02-20T01:31:50.429Z,6.31
2019-02-20T01:32:50.406Z,6.38
2019-02-20T01:33:50.412Z,6.36
2019-02-20T01:34:50.424Z,6.30
2019-02-20T01:35:50.432Z,6.37
2019-02-20T01:36:50.441Z,6.43
2019-02-20T01:37:50.455Z,6.37
2019-02-20T01:38:50.482Z,6.43
2019-02-20T01:39:50.481Z,6.38
2019-02-20T01:40:50.489Z,6.44
2019-02-20T01:41:50.504Z,6.44
2019-02-20T01:42:50.512Z,6.44
2019-02-20T01:43:50.521Z,6.44
2019-02-20T01:44:50.535Z,6.43
2019-02-20T01:45:50.549Z,6.43
2019-02-20T01:46:50.563Z,6.41
2019-02-20T01:47:50.874Z,6.44
2019-02-20T01:48:50.584Z,6.58
2019-02-20T01:49:50.589Z,6.49
2019-02-20T01:50:50.611Z,6.56
2019-02-20T01:51:50.606Z,6.56
2019-02-20T01:52:50.617Z,6.51
2019-02-20T01:53:50.632Z,6.43
2019-02-20T01:54:50.645Z,6.52
2019-02-20T01:55:50.653Z,6.49
2019-02-20T01:56:50.677Z,6.58
2019-02-20T01:57:50.674Z,6.49
2019-02-20T01:58:50.685Z,6.52
2019-02-20T01:59:50.695Z,6.48
2019-02-20T02:00:50.705Z,6.46
2019-02-20T02:01:50.722Z,6.46
2019-02-20T02:02:50.737Z,6.49
2019-02-20T02:03:50.744Z,6.44
2019-02-20T02:04:50.762Z,6.54
2019-02-20T02:05:50.769Z,6.40
2019-02-20T02:06:50.780Z,6.38
2019-02-20T02:07:50.785Z,6.41
2019-02-20T02:08:50.799Z,6.52
2019-02-20T02:09:50.806Z,6.41
2019-02-20T02:10:50.846Z,6.38
2019-02-20T02:11:50.837Z,6.46
2019-02-20T02:12:50.845Z,6.41
2019-02-20T02:13:50.886Z,6.37
2019-02-20T02:14:50.866Z,6.43
2019-02-20T02:15:50.882Z,6.48
2019-02-20T02:16:50.882Z,6.41
2019-02-20T02:17:50.903Z,6.43
2019-02-20T02:18:50.915Z,6.40
2019-02-20T02:19:50.916Z,6.56
2019-02-20T02:20:51.032Z,6.58
2019-02-20T02:21:50.941Z,6.51
2019-02-20T02:22:50.949Z,6.56
2019-02-20T02:23:50.960Z,6.59
2019-02-20T02:24:50.969Z,6.56
2019-02-20T02:25:50.997Z,6.61
2019-02-20T02:26:51.003Z,6.55
2019-02-20T02:27:51.003Z,6.55
2019-02-20T02:28:51.041Z,6.67
2019-02-20T02:29:51.025Z,6.51
2019-02-20T02:30:51.041Z,6.54
2019-02-20T02:31:51.083Z,6.59
2019-02-20T02:32:51.065Z,6.67
2019-02-20T02:33:51.079Z,6.67
2019-02-20T02:34:51.098Z,6.69
2019-02-20T02:35:51.099Z,6.61
2019-02-20T02:36:51.103Z,6.64
2019-02-20T02:37:51.115Z,6.71
2019-02-20T02:38:51.133Z,6.62
2019-02-20T02:39:51.134Z,6.61
2019-02-20T02:40:51.147Z,6.62
2019-02-20T02:41:51.156Z,6.58
2019-02-20T02:42:51.198Z,6.61
2019-02-20T02:43:51.189Z,6.64
2019-02-20T02:44:51.204Z,6.69
2019-02-20T02:45:51.209Z,6.62
2019-02-20T02:46:51.214Z,6.67
2019-02-20T02:47:51.230Z,6.55
2019-02-20T02:48:51.275Z,6.55
2019-02-20T02:49:51.263Z,6.67
2019-02-20T02:50:51.291Z,6.54
2019-02-20T02:51:51.282Z,6.61
2019-02-20T02:52:51.280Z,6.52
2019-02-20T02:53:51.288Z,6.66
2019-02-20T02:54:51.300Z,6.56
2019-02-20T02:55:51.315Z,6.67
2019-02-20T02:56:51.332Z,6.54
2019-02-20T02:57:51.342Z,6.52
2019-02-20T02:58:51.352Z,6.56
2019-02-20T02:59:51.357Z,6.56
2019-02-20T03:00:51.451Z,6.56
2019-02-20T03:01:51.381Z,6.54
2019-02-20T03:02:51.390Z,6.62
2019-02-20T03:03:51.448Z,6.69
2019-02-20T03:04:51.419Z,6.64
2019-02-20T03:05:51.425Z,6.66
2019-02-20T03:06:51.438Z,6.62
2019-02-20T03:07:51.449Z,6.64
2019-02-20T03:08:51.461Z,6.66
2019-02-20T03:09:51.502Z,6.73
2019-02-20T03:10:51.507Z,6.67
2019-02-20T03:11:51.491Z,6.67
2019-02-20T03:12:51.498Z,6.56
2019-02-20T03:13:51.508Z,6.55
2019-02-20T03:14:51.520Z,6.51
2019-02-20T03:15:51.540Z,6.55
2019-02-20T03:16:51.540Z,6.56
2019-02-20T03:17:51.569Z,6.51
2019-02-20T03:18:51.608Z,6.58
2019-02-20T03:19:51.580Z,6.59
2019-02-20T03:20:51.589Z,6.64
2019-02-20T03:21:51.635Z,6.59
2019-02-20T03:22:51.658Z,6.61
2019-02-20T03:23:51.625Z,6.69
2019-02-20T03:24:51.629Z,6.59
2019-02-20T03:25:51.649Z,6.61
2019-02-20T03:26:51.654Z,6.66
2019-02-20T03:27:51.666Z,6.71
2019-02-20T03:28:51.684Z,6.69
2019-02-20T03:29:51.694Z,6.71
2019-02-20T03:30:51.700Z,6.73
2019-02-20T03:31:51.706Z,6.70
2019-02-20T03:32:51.721Z,6.71
2019-02-20T03:33:51.728Z,6.73
2019-02-20T03:34:51.781Z,6.66
2019-02-20T03:35:51.778Z,6.71
2019-02-20T03:36:51.773Z,6.69
2019-02-20T03:37:51.777Z,6.70
2019-02-20T03:38:51.787Z,6.73
2019-02-20T03:39:51.801Z,6.70
2019-02-20T03:40:51.817Z,6.76
2019-02-20T03:41:51.823Z,6.73
2019-02-20T03:42:51.855Z,6.74
2019-02-20T03:43:51.855Z,6.76
2019-02-20T03:44:51.849Z,6.73
2019-02-20T03:45:51.866Z,6.74
2019-02-20T03:46:51.873Z,6.76
2019-02-20T03:47:51.892Z,6.81
2019-02-20T03:48:51.909Z,6.80
2019-02-20T03:49:51.913Z,6.73
2019-02-20T03:50:51.925Z,6.73
2019-02-20T03:51:51.940Z,6.79
2019-02-20T03:52:51.944Z,6.80
2019-02-20T03:53:52.474Z,6.70
2019-02-20T03:54:51.979Z,6.71
2019-02-20T03:55:51.982Z,6.74
2019-02-20T03:56:51.993Z,6.70
2019-02-20T03:57:51.998Z,6.76
2019-02-20T03:58:52.007Z,6.73
2019-02-20T03:59:52.026Z,6.73
2019-02-20T04:00:52.032Z,6.77
2019-02-20T04:01:52.049Z,6.76
2019-02-20T04:02:52.051Z,6.77
2019-02-20T04:03:52.069Z,6.74
2019-02-20T04:04:52.070Z,6.73
2019-02-20T04:05:52.083Z,6.71
2019-02-20T04:06:52.242Z,6.71
2019-02-20T04:07:52.152Z,6.77
2019-02-20T04:08:52.111Z,6.77
2019-02-20T04:09:52.126Z,6.77
2019-02-20T04:10:52.133Z,6.77
2019-02-20T04:11:52.158Z,6.79
2019-02-20T04:12:52.155Z,6.76
2019-02-20T04:13:52.173Z,6.73
2019-02-20T04:14:52.173Z,6.76
2019-02-20T04:15:52.184Z,6.73
2019-02-20T04:16:52.196Z,6.77
2019-02-20T04:17:52.210Z,6.76
2019-02-20T04:18:52.221Z,6.73
2019-02-20T04:19:52.236Z,6.74
2019-02-20T04:20:52.241Z,6.79
2019-02-20T04:21:52.258Z,6.79
2019-02-20T04:22:52.269Z,6.76
2019-02-20T04:24:01.579Z,6.76
2019-02-20T04:24:52.287Z,6.71
2019-02-20T04:25:52.303Z,6.76
2019-02-20T04:26:52.317Z,6.76
2019-02-20T04:27:52.318Z,6.69
2019-02-20T04:28:52.335Z,6.79
2019-02-20T04:29:52.344Z,6.76
2019-02-20T04:30:52.355Z,6.73
2019-02-20T04:31:52.367Z,6.76
2019-02-20T04:32:52.374Z,6.79
2019-02-20T04:33:52.393Z,6.87
2019-02-20T04:34:52.397Z,6.76
2019-02-20T04:35:52.412Z,6.81
2019-02-20T04:36:52.437Z,6.77
2019-02-20T04:37:52.429Z,6.74
2019-02-20T04:38:52.443Z,6.87
2019-02-20T04:39:52.458Z,6.79
2019-02-20T04:40:52.461Z,6.91
2019-02-20T04:41:52.476Z,6.89
2019-02-20T04:42:52.486Z,6.91
2019-02-20T04:43:52.500Z,6.79
2019-02-20T04:44:52.514Z,6.92
2019-02-20T04:45:52.685Z,6.81
2019-02-20T04:46:52.533Z,6.87
2019-02-20T04:47:52.550Z,6.85
2019-02-20T04:48:52.556Z,6.76
2019-02-20T04:49:52.571Z,6.91
2019-02-20T04:50:52.635Z,6.76
2019-02-20T04:51:52.595Z,6.84
2019-02-20T04:52:52.598Z,6.85
2019-02-20T04:53:52.608Z,6.87
2019-02-20T04:54:52.624Z,6.79
2019-02-20T04:55:52.631Z,6.89
2019-02-20T04:56:52.637Z,6.87
2019-02-20T04:57:52.665Z,6.80
2019-02-20T04:58:52.666Z,6.88
2019-02-20T04:59:52.678Z,6.84
2019-02-20T05:00:52.691Z,6.77
2019-02-20T05:01:52.697Z,6.73
2019-02-20T05:02:52.705Z,6.73
2019-02-20T05:03:52.725Z,6.73
2019-02-20T05:04:52.727Z,6.77
2019-02-20T05:05:52.741Z,6.79
2019-02-20T05:06:52.756Z,6.73
2019-02-20T05:07:52.770Z,6.77
2019-02-20T05:08:52.781Z,6.74
2019-02-20T05:09:52.789Z,6.71
2019-02-20T05:10:52.805Z,6.73
2019-02-20T05:11:52.811Z,6.69
2019-02-20T05:12:52.856Z,6.73
2019-02-20T05:13:52.824Z,6.71
2019-02-20T05:14:52.854Z,6.64
2019-02-20T05:15:52.850Z,6.64
2019-02-20T05:16:52.874Z,6.76
2019-02-20T05:17:52.904Z,6.74
2019-02-20T05:18:53.046Z,6.73
2019-02-20T05:19:52.919Z,6.73
2019-02-20T05:20:52.906Z,6.74
2019-02-20T05:21:52.914Z,6.77
2019-02-20T05:22:52.940Z,6.70
2019-02-20T05:23:52.936Z,6.69
2019-02-20T05:24:52.972Z,6.67
2019-02-20T05:25:52.957Z,6.69
2019-02-20T05:26:52.974Z,6.69
2019-02-20T05:27:53.015Z,6.67
2019-02-20T05:28:52.994Z,6.62
2019-02-20T05:29:52.999Z,6.58
2019-02-20T05:30:53.016Z,6.61
2019-02-20T05:31:53.044Z,6.62
2019-02-20T05:32:53.039Z,6.64
2019-02-20T05:33:53.049Z,6.55
2019-02-20T05:34:53.057Z,6.48
2019-02-20T05:35:53.455Z,6.51
2019-02-20T05:36:53.082Z,6.55
2019-02-20T05:37:53.089Z,6.48
2019-02-20T05:38:53.096Z,6.38
2019-02-20T05:39:53.173Z,6.48
2019-02-20T05:40:53.123Z,6.44
2019-02-20T05:41:53.147Z,6.43
2019-02-20T05:42:53.227Z,6.49
2019-02-20T05:43:53.172Z,6.46
2019-02-20T05:44:53.312Z,6.44
2019-02-20T05:45:53.319Z,6.46
2019-02-20T05:46:53.241Z,6.46
2019-02-20T05:47:53.236Z,6.40
2019-02-20T05:48:53.214Z,6.41
2019-02-20T05:49:53.224Z,6.30
2019-02-20T05:50:53.239Z,6.38
2019-02-20T05:51:53.240Z,6.37
2019-02-20T05:52:53.256Z,6.38
2019-02-20T05:53:53.272Z,6.36
2019-02-20T05:54:53.279Z,6.31
2019-02-20T05:55:53.287Z,6.30
2019-02-20T05:56:53.297Z,6.33
2019-02-20T05:57:53.309Z,6.34
2019-02-20T05:58:53.322Z,6.34
2019-02-20T05:59:53.333Z,6.36
2019-02-20T06:00:53.338Z,6.27
2019-02-20T06:01:53.349Z,6.30
2019-02-20T06:02:53.793Z,6.28
2019-02-20T06:03:53.386Z,6.25
2019-02-20T06:04:53.387Z,6.33
2019-02-20T06:05:53.396Z,6.22
2019-02-20T06:06:53.400Z,6.22
2019-02-20T06:07:53.432Z,6.27
2019-02-20T06:08:53.504Z,6.37
2019-02-20T06:10:53.448Z,6.30
2019-02-20T06:11:53.457Z,6.28
2019-02-20T06:12:53.468Z,6.28
2019-02-20T06:13:54.708Z,6.15
2019-02-20T06:14:53.488Z,6.21
2019-02-20T06:15:53.497Z,6.25
2019-02-20T06:16:53.717Z,6.25
2019-02-20T06:17:53.538Z,6.30
2019-02-20T06:18:53.549Z,6.37
2019-02-20T06:19:53.545Z,6.28
2019-02-20T06:20:53.555Z,6.31
2019-02-20T06:21:53.606Z,6.27
2019-02-20T06:22:53.602Z,6.21
2019-02-20T06:23:53.700Z,6.31
2019-02-20T06:24:53.614Z,6.22
2019-02-20T06:25:53.650Z,6.31
2019-02-20T06:26:53.655Z,6.30
2019-02-20T06:27:53.631Z,6.30
2019-02-20T06:28:53.846Z,6.22
2019-02-20T06:29:53.650Z,6.28
2019-02-20T06:30:53.668Z,6.25
2019-02-20T06:31:53.672Z,6.27
2019-02-20T06:32:53.681Z,6.25
2019-02-20T06:33:53.692Z,6.33
2019-02-20T06:34:53.728Z,6.30
2019-02-20T06:35:53.714Z,6.28
2019-02-20T06:36:53.748Z,6.22
2019-02-20T06:37:53.745Z,6.30
2019-02-20T06:38:53.766Z,6.25
2019-02-20T06:39:53.955Z,6.30
2019-02-20T06:40:53.781Z,6.31
2019-02-20T06:41:53.780Z,6.40
2019-02-20T06:42:53.890Z,6.36
2019-02-20T06:43:53.800Z,6.33
2019-02-20T06:44:53.808Z,6.44
2019-02-20T06:45:53.889Z,6.36
2019-02-20T06:46:53.839Z,6.56
2019-02-20T06:47:53.853Z,6.43
2019-02-20T06:48:53.855Z,6.43
2019-02-20T06:49:53.872Z,6.28
2019-02-20T06:50:53.893Z,6.28
2019-02-20T06:51:53.888Z,6.41
2019-02-20T06:52:53.896Z,6.40
2019-02-20T06:53:54.292Z,6.31
2019-02-20T06:55:54.246Z,6.33
2019-02-20T06:56:54.292Z,6.43
2019-02-20T06:57:53.957Z,6.40
2019-02-20T06:58:53.977Z,6.40
2019-02-20T06:59:54.017Z,6.48
2019-02-20T07:00:53.992Z,6.31
2019-02-20T07:01:53.995Z,6.43
2019-02-20T07:02:54.009Z,6.40
2019-02-20T07:03:54.017Z,6.54
2019-02-20T07:04:54.036Z,6.44
2019-02-20T07:05:54.038Z,6.54
2019-02-20T07:06:55.528Z,6.44
2019-02-20T07:07:54.067Z,6.38
2019-02-20T07:08:54.095Z,6.34
2019-02-20T07:09:54.079Z,6.49
2019-02-20T07:10:54.098Z,6.49
2019-02-20T07:11:54.102Z,6.36
2019-02-20T07:12:54.142Z,6.46
2019-02-20T07:13:54.128Z,6.44
2019-02-20T07:14:54.138Z,6.43
2019-02-20T07:15:54.145Z,6.43
2019-02-20T07:16:54.296Z,6.46
2019-02-20T07:17:54.168Z,6.46
2019-02-20T07:18:54.192Z,6.44
2019-02-20T07:19:54.216Z,6.48
2019-02-20T07:20:54.205Z,6.48
2019-02-20T07:21:54.221Z,6.40
2019-02-20T07:22:54.227Z,6.40
2019-02-20T07:23:54.229Z,6.55
2019-02-20T07:25:02.671Z,6.40
2019-02-20T07:25:54.258Z,6.44
2019-02-20T07:26:54.268Z,6.46
2019-02-20T07:27:54.282Z,6.56
2019-02-20T07:28:54.292Z,6.52
2019-02-20T07:29:54.309Z,6.52
2019-02-20T07:30:54.335Z,6.54
2019-02-20T07:31:54.326Z,6.55
2019-02-20T07:32:54.336Z,6.55
2019-02-20T07:33:54.345Z,6.56
2019-02-20T07:34:54.355Z,6.58
2019-02-20T07:35:54.367Z,6.59
2019-02-20T07:36:54.380Z,6.69
2019-02-20T07:37:54.391Z,6.67
2019-02-20T07:38:54.399Z,6.67
2019-02-20T07:39:54.422Z,6.61
2019-02-20T07:40:54.426Z,6.62
2019-02-20T07:41:54.441Z,6.58
2019-02-20T07:42:54.445Z,6.64
2019-02-20T07:43:54.461Z,6.66
2019-02-20T07:44:54.477Z,6.58
2019-02-20T07:45:54.473Z,6.67
2019-02-20T07:46:54.502Z,6.66
2019-02-20T07:47:54.504Z,6.62
2019-02-20T07:48:54.519Z,6.66
2019-02-20T07:49:54.523Z,6.66
2019-02-20T07:50:54.537Z,6.64
2019-02-20T07:51:54.539Z,6.62
2019-02-20T07:52:54.554Z,6.66
2019-02-20T07:53:54.560Z,6.70
2019-02-20T07:54:54.585Z,6.70
2019-02-20T07:55:54.616Z,6.74
2019-02-20T07:56:54.613Z,6.70
2019-02-20T07:57:54.606Z,6.76
2019-02-20T07:58:54.645Z,6.81
2019-02-20T07:59:54.630Z,6.84
2019-02-20T08:00:54.685Z,6.73
2019-02-20T08:01:54.662Z,6.76
2019-02-20T08:02:54.663Z,6.85
2019-02-20T08:03:54.689Z,6.81
2019-02-20T08:04:55.186Z,6.84
2019-02-20T08:05:54.703Z,6.84
2019-02-20T08:06:54.711Z,6.89
2019-02-20T08:07:54.748Z,6.89
2019-02-20T08:08:54.757Z,6.84
2019-02-20T08:09:54.737Z,6.97
2019-02-20T08:10:54.761Z,6.95
2019-02-20T08:11:54.773Z,6.98
2019-02-20T08:12:54.777Z,6.98
2019-02-20T08:13:54.790Z,6.99
2019-02-20T08:14:54.805Z,7.07
2019-02-20T08:15:54.821Z,7.16
2019-02-20T08:16:54.840Z,7.12
2019-02-20T08:17:54.843Z,7.09
2019-02-20T08:18:54.848Z,7.12
2019-02-20T08:19:54.857Z,7.13
2019-02-20T08:20:54.882Z,7.10
2019-02-20T08:21:54.882Z,7.27
2019-02-20T08:22:54.885Z,7.27
2019-02-20T08:23:54.931Z,7.28
2019-02-20T08:24:54.918Z,7.30
2019-02-20T08:25:55.230Z,7.28
2019-02-20T08:26:54.939Z,7.34
2019-02-20T08:27:54.972Z,7.30
2019-02-20T08:28:54.977Z,7.48
2019-02-20T08:29:54.986Z,7.35
2019-02-20T08:30:54.991Z,7.43
2019-02-20T08:31:54.989Z,7.46
2019-02-20T08:32:55.011Z,7.42
2019-02-20T08:33:55.045Z,7.48
2019-02-20T08:34:55.041Z,7.40
2019-02-20T08:35:55.714Z,7.43
2019-02-20T08:36:55.050Z,7.55
2019-02-20T08:37:55.288Z,7.50
2019-02-20T08:38:55.067Z,7.60
2019-02-20T08:39:55.090Z,7.64
2019-02-20T08:40:55.092Z,7.58
2019-02-20T08:41:55.113Z,7.72
2019-02-20T08:42:55.211Z,7.74
2019-02-20T08:43:55.129Z,7.69
2019-02-20T08:44:55.138Z,7.72
2019-02-20T08:45:55.155Z,7.58
2019-02-20T08:46:55.198Z,7.60
2019-02-20T08:47:55.171Z,7.71
2019-02-20T08:48:55.195Z,7.72
2019-02-20T08:49:55.221Z,7.77
2019-02-20T08:50:55.208Z,7.87
2019-02-20T08:51:55.242Z,7.86
2019-02-20T08:52:55.230Z,7.86
2019-02-20T08:53:55.260Z,7.92
2019-02-20T08:54:55.265Z,7.89
2019-02-20T08:55:55.271Z,7.87
2019-02-20T08:56:55.319Z,7.86
2019-02-20T08:57:55.285Z,7.86
2019-02-20T08:58:55.301Z,7.93
2019-02-20T08:59:55.353Z,7.97
2019-02-20T09:00:55.327Z,7.93
2019-02-20T09:01:57.060Z,7.95
2019-02-20T09:02:55.358Z,7.97
2019-02-20T09:03:55.371Z,8.04
2019-02-20T09:04:55.375Z,8.08
2019-02-20T09:05:55.380Z,7.97
2019-02-20T09:06:55.397Z,8.04
2019-02-20T09:07:55.431Z,7.98
2019-02-20T09:08:55.422Z,8.15
2019-02-20T09:09:55.431Z,8.11
2019-02-20T09:10:55.441Z,8.19
2019-02-20T09:11:55.464Z,8.15
2019-02-20T09:12:55.471Z,8.22
2019-02-20T09:13:55.475Z,8.30
2019-02-20T09:14:55.487Z,8.28
2019-02-20T09:16:55.515Z,8.33
2019-02-20T09:17:55.831Z,8.33
2019-02-20T09:18:55.541Z,8.47
2019-02-20T09:19:55.573Z,8.59
2019-02-20T09:20:55.571Z,8.61
2019-02-20T09:21:55.579Z,8.48
2019-02-20T09:22:55.592Z,8.62
2019-02-20T09:23:55.594Z,8.63
2019-02-20T09:24:55.622Z,8.65
2019-02-20T09:25:55.719Z,8.70
2019-02-20T09:26:55.633Z,8.66
2019-02-20T09:28:56.860Z,8.68
2019-02-20T09:29:55.668Z,8.73
2019-02-20T09:30:55.683Z,8.63
2019-02-20T09:31:55.986Z,8.73
2019-02-20T09:32:55.730Z,8.65
2019-02-20T09:33:56.734Z,8.63
2019-02-20T09:34:55.727Z,8.65
2019-02-20T09:35:55.742Z,8.73
2019-02-20T09:36:56.281Z,8.71
2019-02-20T09:37:55.805Z,8.77
2019-02-20T09:38:55.777Z,8.73
2019-02-20T09:39:55.795Z,8.74
2019-02-20T09:40:55.800Z,8.68
2019-02-20T09:41:55.807Z,8.65
2019-02-20T09:42:55.828Z,8.68
2019-02-20T09:43:55.836Z,8.77
2019-02-20T09:44:55.852Z,8.80
2019-02-20T09:45:55.903Z,8.81
2019-02-20T09:46:55.882Z,8.83
2019-02-20T09:47:55.886Z,8.95
2019-02-20T09:48:55.912Z,8.87
2019-02-20T09:49:55.924Z,8.99
2019-02-20T09:50:55.938Z,8.95
2019-02-20T09:51:55.933Z,9.02
2019-02-20T09:52:55.950Z,9.02
2019-02-20T09:53:55.956Z,9.10
2019-02-20T09:54:55.986Z,9.31
2019-02-20T09:55:55.984Z,9.24
2019-02-20T09:56:56.000Z,9.29
2019-02-20T09:57:56.030Z,9.40
2019-02-20T09:58:56.014Z,9.48
2019-02-20T09:59:56.040Z,9.53
2019-02-20T10:00:56.040Z,9.54
2019-02-20T10:01:56.059Z,9.51
2019-02-20T10:02:56.245Z,9.48
2019-02-20T10:03:56.240Z,9.64
2019-02-20T10:04:56.100Z,9.58
2019-02-20T10:05:56.258Z,9.58
2019-02-20T10:06:56.111Z,9.58
2019-02-20T10:07:56.725Z,9.54
2019-02-20T10:08:56.138Z,9.65
2019-02-20T10:09:56.154Z,9.61
2019-02-20T10:10:56.181Z,9.71
2019-02-20T10:11:57.099Z,9.75
2019-02-20T10:12:56.293Z,9.79
2019-02-20T10:13:56.205Z,9.89
2019-02-20T10:14:56.247Z,9.97
2019-02-20T10:15:56.229Z,9.93
2019-02-20T10:16:56.275Z,9.94
2019-02-20T10:17:56.244Z,10.05
2019-02-20T10:18:56.262Z,10.04
2019-02-20T10:19:56.277Z,10.05
2019-02-20T10:20:56.286Z,10.18
2019-02-20T10:21:56.303Z,10.17
2019-02-20T10:22:56.310Z,10.12
2019-02-20T10:23:56.327Z,10.20
2019-02-20T10:24:56.335Z,10.14
2019-02-20T10:26:01.014Z,10.17
2019-02-20T10:27:00.606Z,10.15
2019-02-20T10:27:56.394Z,10.27
2019-02-20T10:28:56.400Z,10.34
2019-02-20T10:29:56.402Z,10.30
2019-02-20T10:30:56.414Z,10.36
2019-02-20T10:31:56.421Z,10.36
2019-02-20T10:32:56.444Z,10.38
2019-02-20T10:33:56.479Z,10.45
2019-02-20T10:34:56.469Z,10.45
2019-02-20T10:35:56.480Z,10.47
2019-02-20T10:36:56.488Z,10.44
2019-02-20T10:37:56.503Z,10.48
2019-02-20T10:38:56.532Z,10.45
2019-02-20T10:39:56.524Z,10.47
2019-02-20T10:40:56.606Z,10.51
2019-02-20T10:41:56.599Z,10.45
2019-02-20T10:42:56.565Z,10.47
2019-02-20T10:43:56.578Z,10.47
2019-02-20T10:44:56.592Z,10.47
2019-02-20T10:45:56.614Z,10.47
2019-02-20T10:46:56.621Z,10.53
2019-02-20T10:47:56.627Z,10.59
2019-02-20T10:48:56.640Z,10.47
2019-02-20T10:49:56.655Z,10.51
2019-02-20T10:50:56.666Z,10.64
2019-02-20T10:51:56.685Z,10.51
2019-02-20T10:52:56.690Z,10.59
2019-02-20T10:53:56.706Z,10.64
2019-02-20T10:54:57.930Z,10.67
2019-02-20T10:55:56.738Z,10.67
2019-02-20T10:57:56.759Z,10.78
2019-02-20T10:58:56.785Z,10.70
2019-02-20T10:59:56.790Z,10.67
2019-02-20T11:00:56.794Z,10.68
2019-02-20T11:01:56.816Z,10.63
2019-02-20T11:02:56.820Z,10.60
2019-02-20T11:03:56.853Z,10.53
2019-02-20T11:04:56.848Z,10.56
2019-02-20T11:05:56.871Z,10.66
2019-02-20T11:06:56.875Z,10.70
2019-02-20T11:07:56.891Z,10.68
2019-02-20T11:08:56.905Z,10.79
2019-02-20T11:09:57.018Z,10.68
2019-02-20T11:10:56.924Z,10.76
2019-02-20T11:11:56.945Z,10.74
2019-02-20T11:12:56.957Z,10.73
2019-02-20T11:13:56.971Z,10.81
2019-02-20T11:14:57.829Z,10.82
2019-02-20T11:15:58.850Z,10.76
2019-02-20T11:16:57.003Z,10.84
2019-02-20T11:17:57.026Z,10.85
2019-02-20T11:18:57.036Z,10.84
2019-02-20T11:19:57.040Z,10.89
2019-02-20T11:20:57.052Z,10.88
2019-02-20T11:21:57.077Z,10.94
2019-02-20T11:22:57.083Z,10.97
2019-02-20T11:23:57.112Z,11.06
2019-02-20T11:24:57.110Z,11.10
2019-02-20T11:25:57.123Z,11.03
2019-02-20T11:26:57.145Z,11.09
2019-02-20T11:27:57.147Z,11.07
2019-02-20T11:28:57.169Z,11.10
2019-02-20T11:29:57.183Z,11.04
2019-02-20T11:30:57.189Z,11.11
2019-02-20T11:31:57.199Z,11.07
2019-02-20T11:32:57.222Z,11.07
2019-02-20T11:33:57.232Z,11.11
2019-02-20T11:34:57.240Z,11.22
2019-02-20T11:35:57.254Z,11.17
2019-02-20T11:36:57.288Z,11.24
2019-02-20T11:37:57.288Z,11.33
2019-02-20T11:38:57.291Z,11.35
2019-02-20T11:39:57.302Z,11.24
2019-02-20T11:40:57.325Z,11.29
2019-02-20T11:41:57.331Z,11.28
2019-02-20T11:42:57.340Z,11.35
2019-02-20T11:43:57.358Z,11.28
2019-02-20T11:44:57.380Z,11.40
2019-02-20T11:45:57.707Z,11.44
2019-02-20T11:46:57.393Z,11.43
2019-02-20T11:47:57.409Z,11.35
2019-02-20T11:48:57.424Z,11.46
2019-02-20T11:49:57.439Z,11.44
2019-02-20T11:50:57.447Z,11.51
2019-02-20T11:51:57.472Z,11.46
2019-02-20T11:52:57.473Z,11.49
2019-02-20T11:53:57.493Z,11.47
2019-02-20T11:54:57.507Z,11.42
2019-02-20T11:55:57.520Z,11.37
2019-02-20T11:56:57.534Z,11.39
2019-02-20T11:58:00.671Z,11.52
2019-02-20T11:58:57.561Z,11.49
2019-02-20T11:59:57.580Z,11.44
2019-02-20T12:00:57.585Z,11.49
2019-02-20T12:01:57.813Z,11.52
2019-02-20T12:02:57.610Z,11.58
2019-02-20T12:03:57.632Z,11.57
2019-02-20T12:04:57.695Z,11.54
2019-02-20T12:05:57.648Z,11.54
2019-02-20T12:06:57.669Z,11.49
2019-02-20T12:07:57.679Z,11.49
2019-02-20T12:08:57.695Z,11.43
2019-02-20T12:09:57.703Z,11.43
2019-02-20T12:10:57.723Z,11.40
2019-02-20T12:11:57.737Z,11.42
2019-02-20T12:12:57.761Z,11.43
2019-02-20T12:13:57.759Z,11.42
2019-02-20T12:14:57.800Z,11.47
2019-02-20T12:15:57.785Z,11.42
2019-02-20T12:16:57.797Z,11.57
2019-02-20T12:17:57.809Z,11.58
2019-02-20T12:18:57.823Z,11.58
2019-02-20T12:19:57.836Z,11.52
2019-02-20T12:20:58.496Z,11.69
2019-02-20T12:21:58.200Z,11.75
2019-02-20T12:24:59.314Z,11.75
2019-02-20T12:25:57.921Z,11.82
2019-02-20T12:26:57.933Z,11.83
2019-02-20T12:27:57.953Z,11.75
2019-02-20T12:28:57.956Z,11.80
2019-02-20T12:29:57.986Z,11.76
2019-02-20T12:30:58.023Z,11.79
2019-02-20T12:32:58.021Z,11.85
2019-02-20T12:33:58.029Z,11.94
2019-02-20T12:34:58.050Z,11.98
2019-02-20T12:35:58.074Z,12.05
2019-02-20T12:36:58.078Z,12.12
2019-02-20T12:37:58.089Z,12.05
2019-02-20T12:38:58.098Z,12.01
2019-02-20T12:39:58.150Z,12.05
2019-02-20T12:40:58.129Z,12.17
2019-02-20T12:41:58.143Z,12.09
2019-02-20T12:42:58.163Z,12.21
2019-02-20T12:43:58.165Z,12.14
2019-02-20T12:44:58.673Z,12.23
2019-02-20T12:45:58.191Z,12.24
2019-02-20T12:46:58.271Z,12.19
2019-02-20T12:47:58.216Z,12.19
2019-02-20T12:48:58.234Z,12.28
2019-02-20T12:49:58.246Z,12.29
2019-02-20T12:50:58.264Z,12.37
2019-02-20T12:52:00.073Z,12.24
2019-02-20T12:52:58.349Z,12.21
2019-02-20T12:53:58.300Z,12.19
2019-02-20T12:54:58.325Z,12.17
2019-02-20T12:55:58.330Z,12.10
2019-02-20T12:56:58.348Z,12.21
2019-02-20T12:57:58.352Z,12.12
2019-02-20T12:58:58.376Z,12.14
2019-02-20T12:59:58.383Z,12.20
2019-02-20T13:00:59.575Z,12.09
2019-02-20T13:01:58.419Z,12.07
2019-02-20T13:02:58.429Z,12.14
2019-02-20T13:03:58.442Z,12.14
2019-02-20T13:04:58.468Z,12.16
2019-02-20T13:05:58.466Z,12.20
2019-02-20T13:06:59.537Z,12.24
2019-02-20T13:07:58.491Z,12.28
2019-02-20T13:08:58.506Z,12.24
2019-02-20T13:09:58.524Z,12.24
2019-02-20T13:10:58.534Z,12.38
2019-02-20T13:11:58.553Z,12.29
2019-02-20T13:12:58.563Z,12.35
2019-02-20T13:13:58.569Z,12.34
2019-02-20T13:14:58.588Z,12.47
2019-02-20T13:15:58.602Z,12.38
2019-02-20T13:16:58.623Z,12.47
2019-02-20T13:17:58.628Z,12.34
2019-02-20T13:18:58.665Z,12.34
2019-02-20T13:19:58.668Z,12.45
2019-02-20T13:20:59.295Z,12.34